createdAt,value
2017-10-10T00:00:01.092Z,993.85
2017-10-10T00:01:01.066Z,993.85
2017-10-10T00:02:01.062Z,993.87
2017-10-10T00:03:01.059Z,993.86
2017-10-10T00:04:01.060Z,993.81
2017-10-10T00:05:01.053Z,993.79
2017-10-10T00:06:01.054Z,993.81
2017-10-10T00:07:01.051Z,993.81
2017-10-10T00:08:01.045Z,993.81
2017-10-10T00:09:01.138Z,993.79
2017-10-10T00:10:01.039Z,993.81
2017-10-10T00:11:01.035Z,993.78
2017-10-10T00:12:01.036Z,993.81
2017-10-10T00:13:01.029Z,993.8
2017-10-10T00:14:01.027Z,993.83
2017-10-10T00:15:01.062Z,993.86
2017-10-10T00:16:01.071Z,993.8
2017-10-10T00:17:01.018Z,993.83
2017-10-10T00:18:01.014Z,993.82
2017-10-10T00:19:01.012Z,993.81
2017-10-10T00:20:01.008Z,993.81
2017-10-10T00:21:01.010Z,993.79
2017-10-10T00:22:01.003Z,993.77
2017-10-10T00:23:01.001Z,993.8
2017-10-10T00:24:00.997Z,993.83
2017-10-10T00:25:00.994Z,993.8
2017-10-10T00:26:00.992Z,993.78
2017-10-10T00:27:00.987Z,993.78
2017-10-10T00:28:00.985Z,993.78
2017-10-10T00:29:00.983Z,993.74
2017-10-10T00:30:00.980Z,993.78
2017-10-10T00:31:00.979Z,993.75
2017-10-10T00:32:01.001Z,993.73
2017-10-10T00:33:00.973Z,993.71
2017-10-10T00:34:00.971Z,993.68
2017-10-10T00:35:00.981Z,993.65
2017-10-10T00:36:00.964Z,993.67
2017-10-10T00:37:00.965Z,993.65
2017-10-10T00:38:00.958Z,993.67
2017-10-10T00:39:00.956Z,993.67
2017-10-10T00:40:00.954Z,993.66
2017-10-10T00:41:00.952Z,993.63
2017-10-10T00:42:00.948Z,993.62
2017-10-10T00:43:00.945Z,993.63
2017-10-10T00:44:00.943Z,993.6
2017-10-10T00:45:00.961Z,993.6
2017-10-10T00:46:00.938Z,993.62
2017-10-10T00:47:00.934Z,993.64
2017-10-10T00:48:00.932Z,993.64
2017-10-10T00:49:00.928Z,993.68
2017-10-10T00:50:00.928Z,993.71
2017-10-10T00:51:00.924Z,993.71
2017-10-10T00:52:00.922Z,993.67
2017-10-10T00:53:00.918Z,993.65
2017-10-10T00:54:00.916Z,993.71
2017-10-10T00:55:00.918Z,993.69
2017-10-10T00:56:00.909Z,993.7
2017-10-10T00:57:00.906Z,993.73
2017-10-10T00:58:00.905Z,993.7
2017-10-10T00:59:00.902Z,993.73
2017-10-10T01:00:00.899Z,993.68
2017-10-10T01:01:00.897Z,993.68
2017-10-10T01:02:00.895Z,993.68
2017-10-10T01:03:00.891Z,993.73
2017-10-10T01:04:00.888Z,993.67
2017-10-10T01:05:00.888Z,993.67
2017-10-10T01:06:00.893Z,993.65
2017-10-10T01:07:00.880Z,993.58
2017-10-10T01:08:00.876Z,993.6
2017-10-10T01:09:00.874Z,993.58
2017-10-10T01:10:00.883Z,993.58
2017-10-10T01:11:00.868Z,993.58
2017-10-10T01:12:00.872Z,993.56
2017-10-10T01:13:00.869Z,993.53
2017-10-10T01:14:00.861Z,993.56
2017-10-10T01:15:00.859Z,993.54
2017-10-10T01:16:00.856Z,993.58
2017-10-10T01:17:00.852Z,993.56
2017-10-10T01:18:00.849Z,993.52
2017-10-10T01:19:00.849Z,993.5
2017-10-10T01:20:00.844Z,993.51
2017-10-10T01:21:00.842Z,993.53
2017-10-10T01:22:00.838Z,993.49
2017-10-10T01:23:00.837Z,993.52
2017-10-10T01:24:00.833Z,993.49
2017-10-10T01:25:00.830Z,993.49
2017-10-10T01:26:00.825Z,993.5
2017-10-10T01:27:00.823Z,993.54
2017-10-10T01:28:00.820Z,993.48
2017-10-10T01:29:00.817Z,993.53
2017-10-10T01:30:00.822Z,993.53
2017-10-10T01:31:00.811Z,993.53
2017-10-10T01:32:00.815Z,993.52
2017-10-10T01:33:00.812Z,993.51
2017-10-10T01:34:00.801Z,993.5
2017-10-10T01:35:00.799Z,993.49
2017-10-10T01:36:00.800Z,993.49
2017-10-10T01:37:00.792Z,993.49
2017-10-10T01:38:00.790Z,993.52
2017-10-10T01:39:00.786Z,993.52
2017-10-10T01:40:00.784Z,993.54
2017-10-10T01:41:00.779Z,993.46
2017-10-10T01:42:00.775Z,993.49
2017-10-10T01:43:00.775Z,993.53
2017-10-10T01:44:00.768Z,993.47
2017-10-10T01:45:00.766Z,993.47
2017-10-10T01:46:00.763Z,993.47
2017-10-10T01:47:04.269Z,993.44
2017-10-10T01:48:00.755Z,993.42
2017-10-10T01:49:00.752Z,993.45
2017-10-10T01:50:00.751Z,993.47
2017-10-10T01:51:00.744Z,993.44
2017-10-10T01:52:00.751Z,993.42
2017-10-10T01:53:00.737Z,993.41
2017-10-10T01:54:00.735Z,993.44
2017-10-10T01:55:00.736Z,993.45
2017-10-10T01:56:00.730Z,993.38
2017-10-10T01:57:00.724Z,993.36
2017-10-10T01:58:00.723Z,993.33
2017-10-10T01:59:00.716Z,993.36
2017-10-10T02:00:00.714Z,993.36
2017-10-10T02:01:00.714Z,993.35
2017-10-10T02:02:00.716Z,993.35
2017-10-10T02:03:00.701Z,993.31
2017-10-10T02:04:00.702Z,993.31
2017-10-10T02:05:00.695Z,993.31
2017-10-10T02:06:00.693Z,993.31
2017-10-10T02:07:00.687Z,993.3
2017-10-10T02:08:00.685Z,993.28
2017-10-10T02:09:00.680Z,993.28
2017-10-10T02:10:00.678Z,993.29
2017-10-10T02:11:00.674Z,993.31
2017-10-10T02:12:00.670Z,993.28
2017-10-10T02:13:00.666Z,993.29
2017-10-10T02:14:00.663Z,993.35
2017-10-10T02:15:00.667Z,993.37
2017-10-10T02:16:00.660Z,993.41
2017-10-10T02:17:00.654Z,993.4
2017-10-10T02:18:00.649Z,993.48
2017-10-10T02:19:00.648Z,993.43
2017-10-10T02:20:00.741Z,993.48
2017-10-10T02:21:00.707Z,993.49
2017-10-10T02:22:00.639Z,993.45
2017-10-10T02:23:00.643Z,993.41
2017-10-10T02:24:00.626Z,993.42
2017-10-10T02:25:00.656Z,993.42
2017-10-10T02:26:00.620Z,993.48
2017-10-10T02:27:00.617Z,993.38
2017-10-10T02:28:00.615Z,993.37
2017-10-10T02:29:00.610Z,993.38
2017-10-10T02:30:00.607Z,993.34
2017-10-10T02:31:00.604Z,993.3
2017-10-10T02:32:00.599Z,993.29
2017-10-10T02:33:00.598Z,993.33
2017-10-10T02:34:00.594Z,993.31
2017-10-10T02:35:00.591Z,993.29
2017-10-10T02:36:00.585Z,993.31
2017-10-10T02:37:00.592Z,993.3
2017-10-10T02:38:00.579Z,993.25
2017-10-10T02:39:00.577Z,993.24
2017-10-10T02:40:00.572Z,993.2
2017-10-10T02:41:00.569Z,993.26
2017-10-10T02:42:00.571Z,993.24
2017-10-10T02:43:00.561Z,993.26
2017-10-10T02:44:00.559Z,993.28
2017-10-10T02:45:00.555Z,993.31
2017-10-10T02:46:00.600Z,993.3
2017-10-10T02:47:00.548Z,993.28
2017-10-10T02:48:00.552Z,993.24
2017-10-10T02:49:00.540Z,993.27
2017-10-10T02:50:00.536Z,993.26
2017-10-10T02:51:00.536Z,993.25
2017-10-10T02:52:00.534Z,993.29
2017-10-10T02:53:00.527Z,993.27
2017-10-10T02:54:00.524Z,993.3
2017-10-10T02:55:00.521Z,993.29
2017-10-10T02:56:00.530Z,993.24
2017-10-10T02:57:00.514Z,993.3
2017-10-10T02:58:00.531Z,993.24
2017-10-10T02:59:00.518Z,993.3
2017-10-10T03:00:00.509Z,993.26
2017-10-10T03:01:00.506Z,993.26
2017-10-10T03:02:00.504Z,993.25
2017-10-10T03:03:00.661Z,993.27
2017-10-10T03:04:00.491Z,993.24
2017-10-10T03:05:00.487Z,993.24
2017-10-10T03:06:00.484Z,993.25
2017-10-10T03:07:00.481Z,993.21
2017-10-10T03:08:00.479Z,993.23
2017-10-10T03:09:00.474Z,993.2
2017-10-10T03:10:00.470Z,993.23
2017-10-10T03:11:00.469Z,993.26
2017-10-10T03:12:00.463Z,993.28
2017-10-10T03:13:00.460Z,993.22
2017-10-10T03:14:00.458Z,993.29
2017-10-10T03:15:00.454Z,993.28
2017-10-10T03:16:00.457Z,993.33
2017-10-10T03:17:00.455Z,993.32
2017-10-10T03:18:00.750Z,993.28
2017-10-10T03:19:00.440Z,993.31
2017-10-10T03:20:00.436Z,993.31
2017-10-10T03:21:00.434Z,993.32
2017-10-10T03:22:00.431Z,993.3
2017-10-10T03:23:00.427Z,993.29
2017-10-10T03:24:00.425Z,993.26
2017-10-10T03:25:00.429Z,993.24
2017-10-10T03:26:00.417Z,993.21
2017-10-10T03:27:00.413Z,993.21
2017-10-10T03:28:00.411Z,993.21
2017-10-10T03:29:00.408Z,993.2
2017-10-10T03:30:00.405Z,993.17
2017-10-10T03:31:00.402Z,993.16
2017-10-10T03:32:00.404Z,993.14
2017-10-10T03:33:01.496Z,993.12
2017-10-10T03:34:00.391Z,993.1
2017-10-10T03:35:00.389Z,993.03
2017-10-10T03:36:00.386Z,993.05
2017-10-10T03:37:00.380Z,993.03
2017-10-10T03:38:00.378Z,993.03
2017-10-10T03:39:00.376Z,993.03
2017-10-10T03:40:00.382Z,992.98
2017-10-10T03:41:00.368Z,992.97
2017-10-10T03:42:00.365Z,992.98
2017-10-10T03:43:00.361Z,992.97
2017-10-10T03:44:00.360Z,992.9
2017-10-10T03:45:00.354Z,992.88
2017-10-10T03:46:00.352Z,992.88
2017-10-10T03:47:00.387Z,992.9
2017-10-10T03:48:00.344Z,992.9
2017-10-10T03:49:00.344Z,992.92
2017-10-10T03:50:00.339Z,992.89
2017-10-10T03:51:00.337Z,992.9
2017-10-10T03:52:00.331Z,992.86
2017-10-10T03:53:00.327Z,992.87
2017-10-10T03:54:00.334Z,992.84
2017-10-10T03:55:00.319Z,992.82
2017-10-10T03:56:00.317Z,992.89
2017-10-10T03:57:00.325Z,992.86
2017-10-10T03:58:00.311Z,992.95
2017-10-10T03:59:00.307Z,992.97
2017-10-10T04:00:00.303Z,993.01
2017-10-10T04:01:00.307Z,993
2017-10-10T04:02:00.300Z,992.99
2017-10-10T04:03:00.293Z,993.01
2017-10-10T04:04:00.290Z,993.01
2017-10-10T04:05:00.287Z,993.02
2017-10-10T04:06:00.295Z,993.01
2017-10-10T04:07:00.280Z,992.99
2017-10-10T04:08:00.277Z,992.99
2017-10-10T04:09:00.275Z,993
2017-10-10T04:10:00.271Z,992.95
2017-10-10T04:11:00.269Z,992.96
2017-10-10T04:12:00.270Z,992.97
2017-10-10T04:13:00.268Z,992.96
2017-10-10T04:14:00.259Z,992.99
2017-10-10T04:15:00.257Z,992.96
2017-10-10T04:16:00.254Z,992.96
2017-10-10T04:17:00.247Z,992.95
2017-10-10T04:18:00.444Z,992.9
2017-10-10T04:19:00.242Z,992.94
2017-10-10T04:20:00.238Z,992.92
2017-10-10T04:21:00.234Z,992.89
2017-10-10T04:22:00.234Z,992.86
2017-10-10T04:23:00.229Z,992.83
2017-10-10T04:24:00.225Z,992.79
2017-10-10T04:25:00.224Z,992.81
2017-10-10T04:26:00.226Z,992.82
2017-10-10T04:27:00.218Z,992.88
2017-10-10T04:28:00.211Z,992.88
2017-10-10T04:29:00.207Z,992.88
2017-10-10T04:30:00.205Z,992.82
2017-10-10T04:31:00.202Z,992.84
2017-10-10T04:32:00.196Z,992.86
2017-10-10T04:33:00.193Z,992.9
2017-10-10T04:34:00.201Z,992.86
2017-10-10T04:35:00.189Z,992.89
2017-10-10T04:36:00.186Z,992.81
2017-10-10T04:37:00.183Z,992.86
2017-10-10T04:38:00.184Z,992.88
2017-10-10T04:39:00.172Z,992.91
2017-10-10T04:40:00.168Z,992.88
2017-10-10T04:41:00.166Z,992.92
2017-10-10T04:42:00.162Z,992.93
2017-10-10T04:43:00.164Z,992.95
2017-10-10T04:44:00.155Z,992.95
2017-10-10T04:45:00.155Z,992.97
2017-10-10T04:46:00.148Z,993.05
2017-10-10T04:47:00.145Z,992.97
2017-10-10T04:48:00.149Z,993
2017-10-10T04:49:00.141Z,993.01
2017-10-10T04:50:00.134Z,993
2017-10-10T04:51:00.132Z,993.01
2017-10-10T04:52:00.135Z,993.01
2017-10-10T04:53:00.137Z,992.93
2017-10-10T04:54:00.123Z,992.95
2017-10-10T04:55:00.118Z,992.91
2017-10-10T04:56:00.117Z,992.9
2017-10-10T04:57:00.113Z,992.94
2017-10-10T04:58:00.115Z,992.95
2017-10-10T04:59:00.106Z,992.96
2017-10-10T05:00:00.110Z,992.95
2017-10-10T05:01:00.100Z,992.91
2017-10-10T05:02:00.097Z,992.93
2017-10-10T05:03:00.103Z,992.92
2017-10-10T05:04:00.091Z,992.94
2017-10-10T05:05:00.094Z,992.91
2017-10-10T05:06:00.087Z,992.93
2017-10-10T05:07:00.082Z,992.96
2017-10-10T05:08:00.080Z,992.88
2017-10-10T05:09:00.076Z,992.93
2017-10-10T05:10:00.073Z,992.93
2017-10-10T05:11:00.074Z,992.9
2017-10-10T05:12:00.067Z,992.94
2017-10-10T05:13:00.065Z,992.96
2017-10-10T05:14:00.062Z,992.99
2017-10-10T05:15:00.059Z,992.96
2017-10-10T05:16:00.058Z,993
2017-10-10T05:17:00.052Z,992.99
2017-10-10T05:18:00.055Z,992.97
2017-10-10T05:19:01.904Z,993
2017-10-10T05:20:00.048Z,993
2017-10-10T05:21:00.044Z,993.07
2017-10-10T05:22:00.046Z,993.06
2017-10-10T05:23:00.038Z,993.09
2017-10-10T05:24:00.052Z,993.11
2017-10-10T05:25:00.033Z,993.07
2017-10-10T05:26:00.029Z,993.08
2017-10-10T05:27:00.026Z,993.11
2017-10-10T05:28:00.022Z,993.11
2017-10-10T05:29:00.021Z,993.13
2017-10-10T05:30:00.041Z,993.08
2017-10-10T05:31:00.014Z,993.09
2017-10-10T05:32:00.014Z,993.1
2017-10-10T05:33:00.008Z,993.11
2017-10-10T05:34:00.007Z,993.19
2017-10-10T05:35:00.002Z,993.15
2017-10-10T05:36:00.001Z,993.13
2017-10-10T05:36:59.999Z,993.15
2017-10-10T05:37:59.996Z,993.14
2017-10-10T05:38:59.994Z,993.18
2017-10-10T05:39:59.991Z,993.15
2017-10-10T05:40:59.987Z,993.15
2017-10-10T05:41:59.985Z,993.22
2017-10-10T05:42:59.988Z,993.17
2017-10-10T05:43:59.980Z,993.17
2017-10-10T05:44:59.977Z,993.18
2017-10-10T05:45:59.974Z,993.17
2017-10-10T05:46:59.973Z,993.14
2017-10-10T05:47:59.970Z,993.17
2017-10-10T05:48:59.968Z,993.2
2017-10-10T05:49:59.965Z,993.18
2017-10-10T05:50:59.963Z,993.19
2017-10-10T05:51:59.961Z,993.22
2017-10-10T05:52:59.956Z,993.26
2017-10-10T05:53:59.958Z,993.25
2017-10-10T05:54:59.953Z,993.26
2017-10-10T05:55:59.950Z,993.26
2017-10-10T05:56:59.948Z,993.3
2017-10-10T05:57:59.972Z,993.31
2017-10-10T05:58:59.945Z,993.32
2017-10-10T05:59:59.940Z,993.3
2017-10-10T06:00:59.937Z,993.33
2017-10-10T06:01:59.937Z,993.34
2017-10-10T06:02:59.931Z,993.33
2017-10-10T06:03:59.930Z,993.37
2017-10-10T06:05:03.431Z,993.35
2017-10-10T06:05:59.926Z,993.36
2017-10-10T06:06:59.923Z,993.32
2017-10-10T06:07:59.921Z,993.34
2017-10-10T06:08:59.917Z,993.37
2017-10-10T06:09:59.919Z,993.32
2017-10-10T06:10:59.918Z,993.32
2017-10-10T06:11:59.911Z,993.32
2017-10-10T06:12:59.911Z,993.25
2017-10-10T06:13:59.904Z,993.29
2017-10-10T06:14:59.904Z,993.31
2017-10-10T06:15:59.904Z,993.27
2017-10-10T06:16:59.907Z,993.36
2017-10-10T06:17:59.905Z,993.35
2017-10-10T06:18:59.894Z,993.33
2017-10-10T06:19:59.904Z,993.32
2017-10-10T06:20:59.888Z,993.4
2017-10-10T06:21:59.887Z,993.43
2017-10-10T06:22:59.888Z,993.44
2017-10-10T06:23:59.887Z,993.43
2017-10-10T06:24:59.887Z,993.43
2017-10-10T06:25:59.875Z,993.46
2017-10-10T06:26:59.873Z,993.5
2017-10-10T06:27:59.869Z,993.5
2017-10-10T06:28:59.868Z,993.48
2017-10-10T06:29:59.866Z,993.53
2017-10-10T06:30:59.866Z,993.5
2017-10-10T06:31:59.864Z,993.53
2017-10-10T06:32:59.857Z,993.52
2017-10-10T06:33:59.858Z,993.56
2017-10-10T06:34:59.852Z,993.59
2017-10-10T06:35:59.856Z,993.56
2017-10-10T06:36:59.854Z,993.55
2017-10-10T06:37:59.854Z,993.56
2017-10-10T06:38:59.841Z,993.58
2017-10-10T06:39:59.862Z,993.57
2017-10-10T06:40:59.838Z,993.59
2017-10-10T06:41:59.838Z,993.62
2017-10-10T06:42:59.837Z,993.62
2017-10-10T06:43:59.841Z,993.62
2017-10-10T06:44:59.828Z,993.63
2017-10-10T06:45:59.826Z,993.68
2017-10-10T06:46:59.822Z,993.65
2017-10-10T06:47:59.824Z,993.67
2017-10-10T06:48:59.819Z,993.71
2017-10-10T06:49:59.820Z,993.69
2017-10-10T06:51:01.466Z,993.67
2017-10-10T06:51:59.813Z,993.73
2017-10-10T06:52:59.821Z,993.76
2017-10-10T06:53:59.819Z,993.72
2017-10-10T06:54:59.810Z,993.73
2017-10-10T06:55:59.808Z,993.72
2017-10-10T06:56:59.805Z,993.73
2017-10-10T06:57:59.801Z,993.7
2017-10-10T06:58:59.799Z,993.74
2017-10-10T06:59:59.798Z,993.71
2017-10-10T07:00:59.796Z,993.72
2017-10-10T07:01:59.793Z,993.75
2017-10-10T07:02:59.792Z,993.76
2017-10-10T07:03:59.794Z,993.76
2017-10-10T07:04:59.786Z,993.74
2017-10-10T07:05:59.786Z,993.72
2017-10-10T07:06:59.784Z,993.75
2017-10-10T07:07:59.785Z,993.75
2017-10-10T07:08:59.778Z,993.73
2017-10-10T07:09:59.779Z,993.72
2017-10-10T07:10:59.778Z,993.74
2017-10-10T07:11:59.776Z,993.67
2017-10-10T07:12:59.776Z,993.68
2017-10-10T07:13:59.770Z,993.66
2017-10-10T07:14:59.771Z,993.69
2017-10-10T07:15:59.766Z,993.67
2017-10-10T07:16:59.770Z,993.66
2017-10-10T07:17:59.762Z,993.65
2017-10-10T07:18:59.762Z,993.71
2017-10-10T07:19:59.759Z,993.66
2017-10-10T07:20:59.757Z,993.64
2017-10-10T07:21:59.755Z,993.68
2017-10-10T07:22:59.754Z,993.67
2017-10-10T07:23:59.751Z,993.66
2017-10-10T07:24:59.750Z,993.61
2017-10-10T07:25:59.749Z,993.61
2017-10-10T07:26:59.745Z,993.57
2017-10-10T07:27:59.748Z,993.56
2017-10-10T07:28:59.750Z,993.58
2017-10-10T07:29:59.755Z,993.57
2017-10-10T07:30:59.737Z,993.56
2017-10-10T07:31:59.736Z,993.53
2017-10-10T07:32:59.734Z,993.61
2017-10-10T07:33:59.732Z,993.64
2017-10-10T07:34:59.728Z,993.62
2017-10-10T07:35:59.729Z,993.63
2017-10-10T07:36:59.726Z,993.59
2017-10-10T07:37:59.728Z,993.68
2017-10-10T07:38:59.726Z,993.67
2017-10-10T07:39:59.717Z,993.63
2017-10-10T07:40:59.714Z,993.65
2017-10-10T07:41:59.710Z,993.7
2017-10-10T07:42:59.709Z,993.63
2017-10-10T07:43:59.707Z,993.69
2017-10-10T07:44:59.705Z,993.65
2017-10-10T07:45:59.702Z,993.66
2017-10-10T07:46:59.705Z,993.64
2017-10-10T07:47:59.698Z,993.69
2017-10-10T07:48:59.699Z,993.71
2017-10-10T07:49:59.695Z,993.76
2017-10-10T07:50:59.694Z,993.73
2017-10-10T07:51:59.686Z,993.75
2017-10-10T07:52:59.687Z,993.74
2017-10-10T07:53:59.682Z,993.76
2017-10-10T07:54:59.681Z,993.8
2017-10-10T07:55:59.678Z,993.82
2017-10-10T07:56:59.680Z,993.8
2017-10-10T07:57:59.680Z,993.78
2017-10-10T07:58:59.681Z,993.83
2017-10-10T07:59:59.680Z,993.87
2017-10-10T08:00:59.677Z,993.89
2017-10-10T08:01:59.667Z,993.85
2017-10-10T08:02:59.666Z,993.85
2017-10-10T08:03:59.662Z,993.85
2017-10-10T08:04:59.659Z,993.76
2017-10-10T08:05:59.658Z,993.83
2017-10-10T08:06:59.656Z,993.84
2017-10-10T08:07:59.654Z,993.78
2017-10-10T08:08:59.653Z,993.73
2017-10-10T08:09:59.649Z,993.73
2017-10-10T08:10:59.648Z,993.84
2017-10-10T08:11:59.650Z,993.78
2017-10-10T08:12:59.651Z,993.8
2017-10-10T08:13:59.649Z,993.78
2017-10-10T08:14:59.639Z,993.75
2017-10-10T08:15:59.637Z,993.73
2017-10-10T08:16:59.638Z,993.77
2017-10-10T08:17:59.636Z,993.76
2017-10-10T08:18:59.642Z,993.79
2017-10-10T08:19:59.633Z,993.83
2017-10-10T08:20:59.632Z,993.85
2017-10-10T08:22:03.838Z,993.76
2017-10-10T08:22:59.633Z,993.8
2017-10-10T08:23:59.627Z,993.76
2017-10-10T08:24:59.626Z,993.78
2017-10-10T08:25:59.625Z,993.72
2017-10-10T08:26:59.623Z,993.79
2017-10-10T08:27:59.622Z,993.76
2017-10-10T08:28:59.633Z,993.78
2017-10-10T08:29:59.622Z,993.79
2017-10-10T08:30:59.626Z,993.8
2017-10-10T08:31:59.618Z,993.77
2017-10-10T08:32:59.617Z,993.78
2017-10-10T08:33:59.616Z,993.77
2017-10-10T08:34:59.616Z,993.77
2017-10-10T08:35:59.614Z,993.8
2017-10-10T08:36:59.614Z,993.77
2017-10-10T08:37:59.611Z,993.74
2017-10-10T08:38:59.614Z,993.76
2017-10-10T08:39:59.610Z,993.76
2017-10-10T08:40:59.610Z,993.76
2017-10-10T08:41:59.610Z,993.79
2017-10-10T08:42:59.609Z,993.75
2017-10-10T08:43:59.608Z,993.79
2017-10-10T08:44:59.612Z,993.79
2017-10-10T08:45:59.608Z,993.78
2017-10-10T08:46:59.609Z,993.79
2017-10-10T08:47:59.607Z,993.85
2017-10-10T08:48:59.607Z,993.82
2017-10-10T08:49:59.607Z,993.8
2017-10-10T08:50:59.607Z,993.82
2017-10-10T08:51:59.606Z,993.81
2017-10-10T08:52:59.605Z,993.76
2017-10-10T08:53:59.605Z,993.75
2017-10-10T08:54:59.606Z,993.78
2017-10-10T08:55:59.609Z,993.75
2017-10-10T08:56:59.609Z,993.75
2017-10-10T08:57:59.613Z,993.71
2017-10-10T08:58:59.604Z,993.76
2017-10-10T08:59:59.609Z,993.77
2017-10-10T09:00:59.610Z,993.78
2017-10-10T09:01:59.604Z,993.81
2017-10-10T09:02:59.605Z,993.82
2017-10-10T09:03:59.606Z,993.86
2017-10-10T09:04:59.605Z,993.87
2017-10-10T09:05:59.607Z,993.91
2017-10-10T09:06:59.605Z,993.87
2017-10-10T09:08:00.707Z,993.83
2017-10-10T09:08:59.610Z,993.87
2017-10-10T09:09:59.606Z,993.87
2017-10-10T09:10:59.606Z,993.86
2017-10-10T09:11:59.605Z,993.89
2017-10-10T09:12:59.605Z,993.89
2017-10-10T09:13:59.605Z,993.92
2017-10-10T09:14:59.606Z,993.89
2017-10-10T09:15:59.605Z,993.95
2017-10-10T09:16:59.604Z,993.93
2017-10-10T09:17:59.605Z,993.94
2017-10-10T09:18:59.605Z,993.93
2017-10-10T09:19:59.613Z,993.95
2017-10-10T09:20:59.605Z,993.98
2017-10-10T09:21:59.606Z,993.96
2017-10-10T09:22:59.607Z,993.92
2017-10-10T09:23:59.610Z,993.93
2017-10-10T09:24:59.607Z,993.93
2017-10-10T09:25:59.606Z,993.93
2017-10-10T09:26:59.609Z,993.93
2017-10-10T09:27:59.608Z,993.91
2017-10-10T09:28:59.607Z,993.89
2017-10-10T09:29:59.605Z,993.95
2017-10-10T09:30:59.604Z,993.96
2017-10-10T09:31:59.616Z,993.91
2017-10-10T09:32:59.624Z,993.93
2017-10-10T09:33:59.618Z,993.91
2017-10-10T09:34:59.611Z,993.93
2017-10-10T09:35:59.616Z,993.9
2017-10-10T09:36:59.605Z,993.89
2017-10-10T09:37:59.609Z,993.91
2017-10-10T09:38:59.606Z,993.92
2017-10-10T09:39:59.607Z,993.91
2017-10-10T09:40:59.621Z,993.87
2017-10-10T09:41:59.606Z,993.91
2017-10-10T09:42:59.612Z,993.92
2017-10-10T09:43:59.611Z,993.93
2017-10-10T09:44:59.608Z,993.94
2017-10-10T09:45:59.612Z,993.9
2017-10-10T09:46:59.609Z,993.97
2017-10-10T09:47:59.606Z,994
2017-10-10T09:48:59.605Z,994
2017-10-10T09:49:59.604Z,993.99
2017-10-10T09:50:59.620Z,993.97
2017-10-10T09:51:59.607Z,993.97
2017-10-10T09:52:59.623Z,993.97
2017-10-10T09:53:59.614Z,993.95
2017-10-10T09:54:59.605Z,993.96
2017-10-10T09:55:59.605Z,993.91
2017-10-10T09:56:59.614Z,993.84
2017-10-10T09:57:59.615Z,993.86
2017-10-10T09:58:59.610Z,993.87
2017-10-10T09:59:59.605Z,993.87
2017-10-10T10:00:59.607Z,993.85
2017-10-10T10:01:59.605Z,993.85
2017-10-10T10:02:59.605Z,993.8
2017-10-10T10:03:59.603Z,993.77
2017-10-10T10:04:59.607Z,993.8
2017-10-10T10:05:59.612Z,993.81
2017-10-10T10:06:59.604Z,993.86
2017-10-10T10:07:59.604Z,993.86
2017-10-10T10:08:59.605Z,993.86
2017-10-10T10:09:59.604Z,993.85
2017-10-10T10:10:59.605Z,993.91
2017-10-10T10:11:59.610Z,993.92
2017-10-10T10:12:59.621Z,993.89
2017-10-10T10:14:00.408Z,993.92
2017-10-10T10:14:59.611Z,993.96
2017-10-10T10:15:59.624Z,993.93
2017-10-10T10:16:59.607Z,993.94
2017-10-10T10:17:59.608Z,993.96
2017-10-10T10:18:59.608Z,994.02
2017-10-10T10:19:59.608Z,993.93
2017-10-10T10:20:59.609Z,993.9
2017-10-10T10:21:59.611Z,993.93
2017-10-10T10:22:59.613Z,993.89
2017-10-10T10:24:00.462Z,993.96
2017-10-10T10:24:59.611Z,993.98
2017-10-10T10:25:59.615Z,994.02
2017-10-10T10:26:59.613Z,994
2017-10-10T10:27:59.615Z,993.99
2017-10-10T10:28:59.614Z,994.05
2017-10-10T10:29:59.615Z,994
2017-10-10T10:30:59.617Z,993.97
2017-10-10T10:31:59.617Z,994
2017-10-10T10:32:59.620Z,993.99
2017-10-10T10:33:59.620Z,993.99
2017-10-10T10:34:59.623Z,993.95
2017-10-10T10:35:59.627Z,994
2017-10-10T10:36:59.625Z,993.97
2017-10-10T10:37:59.635Z,994.04
2017-10-10T10:38:59.630Z,994
2017-10-10T10:39:59.635Z,993.98
2017-10-10T10:40:59.630Z,993.95
2017-10-10T10:41:59.634Z,993.94
2017-10-10T10:42:59.634Z,993.94
2017-10-10T10:43:59.635Z,993.92
2017-10-10T10:44:59.635Z,993.94
2017-10-10T10:45:59.646Z,993.94
2017-10-10T10:46:59.639Z,993.92
2017-10-10T10:47:59.640Z,993.91
2017-10-10T10:48:59.641Z,993.87
2017-10-10T10:49:59.653Z,993.9
2017-10-10T10:50:59.653Z,993.91
2017-10-10T10:51:59.644Z,993.86
2017-10-10T10:52:59.649Z,993.84
2017-10-10T10:53:59.652Z,993.8
2017-10-10T10:54:59.656Z,993.79
2017-10-10T10:55:59.652Z,993.75
2017-10-10T10:56:59.651Z,993.78
2017-10-10T10:57:59.658Z,993.79
2017-10-10T10:58:59.653Z,993.74
2017-10-10T10:59:59.653Z,993.72
2017-10-10T11:00:59.655Z,993.71
2017-10-10T11:01:59.656Z,993.72
2017-10-10T11:02:59.657Z,993.76
2017-10-10T11:03:59.669Z,993.74
2017-10-10T11:04:59.661Z,993.71
2017-10-10T11:05:59.661Z,993.74
2017-10-10T11:06:59.662Z,993.73
2017-10-10T11:07:59.660Z,993.71
2017-10-10T11:08:59.664Z,993.77
2017-10-10T11:09:59.662Z,993.79
2017-10-10T11:10:59.664Z,993.78
2017-10-10T11:11:59.663Z,993.82
2017-10-10T11:12:59.668Z,993.8
2017-10-10T11:13:59.665Z,993.78
2017-10-10T11:14:59.666Z,993.79
2017-10-10T11:15:59.671Z,993.74
2017-10-10T11:16:59.668Z,993.76
2017-10-10T11:17:59.669Z,993.71
2017-10-10T11:18:59.670Z,993.7
2017-10-10T11:19:59.671Z,993.67
2017-10-10T11:20:59.670Z,993.67
2017-10-10T11:21:59.677Z,993.67
2017-10-10T11:22:59.687Z,993.65
2017-10-10T11:23:59.673Z,993.65
2017-10-10T11:24:59.674Z,993.6
2017-10-10T11:25:59.676Z,993.67
2017-10-10T11:26:59.677Z,993.67
2017-10-10T11:27:59.678Z,993.6
2017-10-10T11:28:59.678Z,993.68
2017-10-10T11:29:59.678Z,993.67
2017-10-10T11:30:59.681Z,993.66
2017-10-10T11:31:59.680Z,993.68
2017-10-10T11:32:59.680Z,993.67
2017-10-10T11:33:59.681Z,993.66
2017-10-10T11:34:59.682Z,993.68
2017-10-10T11:35:59.685Z,993.69
2017-10-10T11:36:59.692Z,993.67
2017-10-10T11:37:59.698Z,993.66
2017-10-10T11:38:59.688Z,993.67
2017-10-10T11:39:59.689Z,993.68
2017-10-10T11:40:59.688Z,993.67
2017-10-10T11:41:59.688Z,993.67
2017-10-10T11:42:59.690Z,993.67
2017-10-10T11:43:59.689Z,993.68
2017-10-10T11:44:59.688Z,993.72
2017-10-10T11:45:59.688Z,993.75
2017-10-10T11:46:59.689Z,993.74
2017-10-10T11:47:59.698Z,993.72
2017-10-10T11:48:59.690Z,993.71
2017-10-10T11:49:59.689Z,993.7
2017-10-10T11:50:59.691Z,993.69
2017-10-10T11:51:59.693Z,993.65
2017-10-10T11:52:59.707Z,993.74
2017-10-10T11:53:59.692Z,993.66
2017-10-10T11:55:02.146Z,993.64
2017-10-10T11:55:59.694Z,993.66
2017-10-10T11:56:59.698Z,993.7
2017-10-10T11:57:59.694Z,993.67
2017-10-10T11:58:59.694Z,993.71
2017-10-10T11:59:59.697Z,993.68
2017-10-10T12:00:59.720Z,993.68
2017-10-10T12:01:59.695Z,993.68
2017-10-10T12:02:59.699Z,993.67
2017-10-10T12:03:59.697Z,993.64
2017-10-10T12:04:59.700Z,993.68
2017-10-10T12:05:59.697Z,993.63
2017-10-10T12:06:59.700Z,993.65
2017-10-10T12:07:59.697Z,993.61
2017-10-10T12:08:59.698Z,993.64
2017-10-10T12:09:59.698Z,993.67
2017-10-10T12:10:59.699Z,993.68
2017-10-10T12:11:59.700Z,993.71
2017-10-10T12:12:59.701Z,993.66
2017-10-10T12:13:59.702Z,993.67
2017-10-10T12:14:59.701Z,993.72
2017-10-10T12:15:59.712Z,993.68
2017-10-10T12:16:59.701Z,993.68
2017-10-10T12:17:59.702Z,993.7
2017-10-10T12:18:59.713Z,993.69
2017-10-10T12:19:59.701Z,993.68
2017-10-10T12:20:59.703Z,993.75
2017-10-10T12:21:59.707Z,993.74
2017-10-10T12:22:59.704Z,993.75
2017-10-10T12:23:59.702Z,993.77
2017-10-10T12:24:59.702Z,993.74
2017-10-10T12:25:59.704Z,993.77
2017-10-10T12:26:59.708Z,993.74
2017-10-10T12:27:59.718Z,993.8
2017-10-10T12:28:59.712Z,993.71
2017-10-10T12:29:59.711Z,993.76
2017-10-10T12:30:59.704Z,993.76